sensor_id;sensor_type;location;lat;lon;timestamp;noise_LAeq;noise_LA_min;noise_LA_max;noise_LA01;noise_LA95
64642;Laerm;59936;51.490;5.436;2023-06-22T00:05:03;39.87;34.67;47.38;;
64642;Laerm;59936;51.490;5.436;2023-06-22T00:07:32;39.66;33.95;44.68;;
64642;Laerm;59936;51.490;5.436;2023-06-22T00:10:01;38.63;34.41;43.53;;
64642;Laerm;59936;51.490;5.436;2023-06-22T00:12:29;38.63;35.35;44.78;;
64642;Laerm;59936;51.490;5.436;2023-06-22T00:14:58;38.65;34.48;44.04;;
64642;Laerm;59936;51.490;5.436;2023-06-22T00:17:26;37.31;34.42;41.30;;
64642;Laerm;59936;51.490;5.436;2023-06-22T00:19:55;40.20;35.77;44.17;;
64642;Laerm;59936;51.490;5.436;2023-06-22T00:22:23;38.43;34.27;44.81;;
64642;Laerm;59936;51.490;5.436;2023-06-22T00:24:52;37.70;34.15;42.98;;
64642;Laerm;59936;51.490;5.436;2023-06-22T00:27:21;37.22;33.76;41.75;;
64642;Laerm;59936;51.490;5.436;2023-06-22T00:29:49;37.76;33.76;44.25;;
64642;Laerm;59936;51.490;5.436;2023-06-22T00:32:18;38.48;34.77;44.96;;
64642;Laerm;59936;51.490;5.436;2023-06-22T00:34:46;38.19;33.15;44.21;;
64642;Laerm;59936;51.490;5.436;2023-06-22T00:37:15;36.21;33.01;42.18;;
64642;Laerm;59936;51.490;5.436;2023-06-22T00:39:44;37.98;33.78;43.93;;
64642;Laerm;59936;51.490;5.436;2023-06-22T00:42:12;38.66;33.88;44.26;;
64642;Laerm;59936;51.490;5.436;2023-06-22T00:44:41;39.91;33.91;45.89;;
64642;Laerm;59936;51.490;5.436;2023-06-22T00:47:10;39.29;35.62;45.70;;
64642;Laerm;59936;51.490;5.436;2023-06-22T00:49:38;38.21;33.36;43.04;;
64642;Laerm;59936;51.490;5.436;2023-06-22T00:52:08;37.28;33.35;42.16;;
64642;Laerm;59936;51.490;5.436;2023-06-22T00:54:37;37.26;33.59;43.67;;
64642;Laerm;59936;51.490;5.436;2023-06-22T00:57:06;38.38;33.37;45.51;;
64642;Laerm;59936;51.490;5.436;2023-06-22T00:59:34;38.36;34.66;44.27;;
64642;Laerm;59936;51.490;5.436;2023-06-22T01:02:03;36.52;33.21;48.46;;
64642;Laerm;59936;51.490;5.436;2023-06-22T01:04:36;36.43;33.03;42.97;;
64642;Laerm;59936;51.490;5.436;2023-06-22T01:08:06;37.64;34.74;41.64;;
64642;Laerm;59936;51.490;5.436;2023-06-22T01:13:18;37.40;34.18;42.18;;
64642;Laerm;59936;51.490;5.436;2023-06-22T01:16:30;35.63;33.44;40.90;;
64642;Laerm;59936;51.490;5.436;2023-06-22T01:19:15;37.55;34.45;42.13;;
64642;Laerm;59936;51.490;5.436;2023-06-22T01:21:51;37.04;34.11;41.06;;
64642;Laerm;59936;51.490;5.436;2023-06-22T01:24:27;38.76;34.87;46.03;;
64642;Laerm;59936;51.490;5.436;2023-06-22T01:27:23;36.04;33.63;39.68;;
64642;Laerm;59936;51.490;5.436;2023-06-22T01:29:59;38.60;34.52;49.23;;
64642;Laerm;59936;51.490;5.436;2023-06-22T01:32:31;37.96;33.54;47.40;;
64642;Laerm;59936;51.490;5.436;2023-06-22T01:35:04;36.70;34.38;41.82;;
64642;Laerm;59936;51.490;5.436;2023-06-22T01:37:36;36.57;33.35;41.76;;
64642;Laerm;59936;51.490;5.436;2023-06-22T01:40:08;37.99;34.65;42.57;;
64642;Laerm;59936;51.490;5.436;2023-06-22T01:42:38;38.33;34.34;44.03;;
64642;Laerm;59936;51.490;5.436;2023-06-22T01:45:08;37.02;33.89;44.88;;
64642;Laerm;59936;51.490;5.436;2023-06-22T01:47:39;37.89;34.49;41.92;;
64642;Laerm;59936;51.490;5.436;2023-06-22T01:50:11;38.86;34.83;46.65;;
64642;Laerm;59936;51.490;5.436;2023-06-22T01:52:40;39.14;35.66;46.37;;
64642;Laerm;59936;51.490;5.436;2023-06-22T01:55:09;39.19;36.29;44.39;;
64642;Laerm;59936;51.490;5.436;2023-06-22T01:57:38;38.17;34.86;43.52;;
64642;Laerm;59936;51.490;5.436;2023-06-22T02:00:15;38.86;34.45;43.94;;
64642;Laerm;59936;51.490;5.436;2023-06-22T02:03:22;38.79;35.02;55.48;;
64642;Laerm;59936;51.490;5.436;2023-06-22T02:06:00;39.44;35.99;44.83;;
64642;Laerm;59936;51.490;5.436;2023-06-22T02:08:50;39.11;35.71;43.95;;
64642;Laerm;59936;51.490;5.436;2023-06-22T02:11:21;39.22;35.73;44.55;;
64642;Laerm;59936;51.490;5.436;2023-06-22T02:13:51;38.89;35.28;44.06;;
64642;Laerm;59936;51.490;5.436;2023-06-22T02:16:21;40.11;34.99;44.90;;
64642;Laerm;59936;51.490;5.436;2023-06-22T02:18:51;40.51;35.41;47.76;;
64642;Laerm;59936;51.490;5.436;2023-06-22T02:21:21;41.81;36.81;50.96;;
64642;Laerm;59936;51.490;5.436;2023-06-22T02:23:49;42.83;36.98;54.57;;
64642;Laerm;59936;51.490;5.436;2023-06-22T02:26:18;42.76;35.16;52.19;;
64642;Laerm;59936;51.490;5.436;2023-06-22T02:28:46;44.21;37.70;53.33;;
64642;Laerm;59936;51.490;5.436;2023-06-22T02:31:15;44.57;37.22;57.71;;
64642;Laerm;59936;51.490;5.436;2023-06-22T02:33:44;41.82;36.88;56.88;;
64642;Laerm;59936;51.490;5.436;2023-06-22T02:36:12;45.74;38.93;59.14;;
64642;Laerm;59936;51.490;5.436;2023-06-22T02:38:41;47.07;38.79;59.85;;
64642;Laerm;59936;51.490;5.436;2023-06-22T02:41:10;43.23;37.33;52.70;;
64642;Laerm;59936;51.490;5.436;2023-06-22T02:43:38;44.29;38.32;50.07;;
64642;Laerm;59936;51.490;5.436;2023-06-22T02:46:07;44.21;40.18;51.02;;
64642;Laerm;59936;51.490;5.436;2023-06-22T02:48:36;42.94;39.56;48.86;;
64642;Laerm;59936;51.490;5.436;2023-06-22T02:51:04;47.35;39.86;59.62;;
64642;Laerm;59936;51.490;5.436;2023-06-22T02:53:33;50.83;39.98;59.58;;
64642;Laerm;59936;51.490;5.436;2023-06-22T02:56:03;50.16;38.54;60.17;;
64642;Laerm;59936;51.490;5.436;2023-06-22T02:58:32;47.07;39.17;59.63;;
64642;Laerm;59936;51.490;5.436;2023-06-22T03:01:00;43.95;39.78;50.70;;
64642;Laerm;59936;51.490;5.436;2023-06-22T03:03:29;42.86;38.98;50.36;;
64642;Laerm;59936;51.490;5.436;2023-06-22T03:05:58;42.95;38.84;47.25;;
64642;Laerm;59936;51.490;5.436;2023-06-22T03:08:27;45.57;39.51;63.64;;
64642;Laerm;59936;51.490;5.436;2023-06-22T03:10:56;49.38;40.27;62.77;;
64642;Laerm;59936;51.490;5.436;2023-06-22T03:13:24;45.28;40.39;55.40;;
64642;Laerm;59936;51.490;5.436;2023-06-22T03:15:53;44.58;41.89;49.13;;
64642;Laerm;59936;51.490;5.436;2023-06-22T03:18:21;44.15;40.80;55.76;;
64642;Laerm;59936;51.490;5.436;2023-06-22T03:20:50;57.71;40.79;80.31;;
64642;Laerm;59936;51.490;5.436;2023-06-22T03:23:19;57.84;41.53;79.58;;
64642;Laerm;59936;51.490;5.436;2023-06-22T03:25:47;48.21;41.69;60.31;;
64642;Laerm;59936;51.490;5.436;2023-06-22T03:28:16;47.79;41.35;62.16;;
64642;Laerm;59936;51.490;5.436;2023-06-22T03:30:45;46.36;41.62;62.35;;
64642;Laerm;59936;51.490;5.436;2023-06-22T03:33:13;45.91;42.89;59.55;;
64642;Laerm;59936;51.490;5.436;2023-06-22T03:35:42;45.96;41.40;62.11;;
64642;Laerm;59936;51.490;5.436;2023-06-22T03:38:10;45.66;42.13;58.41;;
64642;Laerm;59936;51.490;5.436;2023-06-22T03:40:39;47.34;44.34;54.99;;
64642;Laerm;59936;51.490;5.436;2023-06-22T03:43:08;48.79;43.55;63.68;;
64642;Laerm;59936;51.490;5.436;2023-06-22T03:45:36;48.66;44.19;60.05;;
64642;Laerm;59936;51.490;5.436;2023-06-22T03:48:05;47.94;43.47;59.36;;
64642;Laerm;59936;51.490;5.436;2023-06-22T03:50:33;47.22;44.54;54.75;;
64642;Laerm;59936;51.490;5.436;2023-06-22T03:53:02;47.09;44.03;53.00;;
64642;Laerm;59936;51.490;5.436;2023-06-22T03:55:31;46.86;44.70;51.01;;
64642;Laerm;59936;51.490;5.436;2023-06-22T03:57:59;46.96;42.99;58.16;;
64642;Laerm;59936;51.490;5.436;2023-06-22T04:00:28;46.91;44.39;54.31;;
64642;Laerm;59936;51.490;5.436;2023-06-22T04:02:56;48.05;44.47;54.09;;
64642;Laerm;59936;51.490;5.436;2023-06-22T04:05:25;47.77;44.23;58.11;;
64642;Laerm;59936;51.490;5.436;2023-06-22T04:07:54;47.06;44.20;53.72;;
64642;Laerm;59936;51.490;5.436;2023-06-22T04:10:22;47.20;44.13;56.63;;
64642;Laerm;59936;51.490;5.436;2023-06-22T04:12:51;47.13;44.23;57.64;;
64642;Laerm;59936;51.490;5.436;2023-06-22T04:15:19;48.65;43.98;59.01;;
64642;Laerm;59936;51.490;5.436;2023-06-22T04:17:48;46.91;44.51;50.32;;
64642;Laerm;59936;51.490;5.436;2023-06-22T04:20:16;48.17;45.99;56.20;;
64642;Laerm;59936;51.490;5.436;2023-06-22T04:22:45;48.25;45.79;56.14;;
64642;Laerm;59936;51.490;5.436;2023-06-22T04:25:14;48.02;45.21;53.50;;
64642;Laerm;59936;51.490;5.436;2023-06-22T04:27:42;49.29;45.49;56.18;;
64642;Laerm;59936;51.490;5.436;2023-06-22T04:30:11;49.16;45.22;57.27;;
64642;Laerm;59936;51.490;5.436;2023-06-22T04:32:40;48.78;45.15;58.50;;
64642;Laerm;59936;51.490;5.436;2023-06-22T04:35:09;48.34;45.34;53.88;;
64642;Laerm;59936;51.490;5.436;2023-06-22T04:37:38;48.24;45.18;55.77;;
64642;Laerm;59936;51.490;5.436;2023-06-22T04:40:07;49.19;45.94;57.20;;
64642;Laerm;59936;51.490;5.436;2023-06-22T04:42:38;49.34;46.13;54.70;;
64642;Laerm;59936;51.490;5.436;2023-06-22T04:45:07;48.48;45.44;53.89;;
64642;Laerm;59936;51.490;5.436;2023-06-22T04:47:36;49.11;46.82;59.05;;
64642;Laerm;59936;51.490;5.436;2023-06-22T04:50:05;49.61;46.70;60.15;;
64642;Laerm;59936;51.490;5.436;2023-06-22T04:52:33;48.96;46.19;53.74;;
64642;Laerm;59936;51.490;5.436;2023-06-22T04:55:02;48.17;45.19;53.01;;
64642;Laerm;59936;51.490;5.436;2023-06-22T04:57:31;48.48;45.49;57.88;;
64642;Laerm;59936;51.490;5.436;2023-06-22T05:00:00;49.15;46.45;55.70;;
64642;Laerm;59936;51.490;5.436;2023-06-22T05:02:28;48.45;45.97;55.26;;
64642;Laerm;59936;51.490;5.436;2023-06-22T05:04:57;48.09;45.67;51.12;;
64642;Laerm;59936;51.490;5.436;2023-06-22T05:07:26;48.59;45.82;53.21;;
64642;Laerm;59936;51.490;5.436;2023-06-22T05:09:54;48.07;45.30;51.82;;
64642;Laerm;59936;51.490;5.436;2023-06-22T05:12:23;49.24;47.26;52.83;;
64642;Laerm;59936;51.490;5.436;2023-06-22T05:14:51;48.33;46.31;56.29;;
64642;Laerm;59936;51.490;5.436;2023-06-22T05:17:20;47.86;45.71;53.22;;
64642;Laerm;59936;51.490;5.436;2023-06-22T05:19:49;49.18;46.26;61.90;;
64642;Laerm;59936;51.490;5.436;2023-06-22T05:22:17;48.67;46.29;58.09;;
64642;Laerm;59936;51.490;5.436;2023-06-22T05:24:46;48.31;46.28;50.83;;
64642;Laerm;59936;51.490;5.436;2023-06-22T05:27:15;49.52;46.04;69.50;;
64642;Laerm;59936;51.490;5.436;2023-06-22T05:29:43;48.44;46.26;52.84;;
64642;Laerm;59936;51.490;5.436;2023-06-22T05:32:12;49.19;46.54;57.88;;
64642;Laerm;59936;51.490;5.436;2023-06-22T05:34:41;50.18;46.92;63.09;;
64642;Laerm;59936;51.490;5.436;2023-06-22T05:37:09;49.42;46.98;55.09;;
64642;Laerm;59936;51.490;5.436;2023-06-22T05:39:38;49.56;47.41;57.57;;
64642;Laerm;59936;51.490;5.436;2023-06-22T05:42:07;50.88;47.91;55.60;;
64642;Laerm;59936;51.490;5.436;2023-06-22T05:44:36;49.51;47.59;55.99;;
64642;Laerm;59936;51.490;5.436;2023-06-22T05:47:05;49.82;47.67;54.32;;
64642;Laerm;59936;51.490;5.436;2023-06-22T05:49:33;50.39;47.01;63.79;;
64642;Laerm;59936;51.490;5.436;2023-06-22T05:52:02;49.30;47.13;56.65;;
64642;Laerm;59936;51.490;5.436;2023-06-22T05:54:31;49.42;46.30;52.57;;
64642;Laerm;59936;51.490;5.436;2023-06-22T05:56:59;49.47;46.37;56.69;;
64642;Laerm;59936;51.490;5.436;2023-06-22T05:59:28;50.03;47.67;61.68;;
64642;Laerm;59936;51.490;5.436;2023-06-22T06:01:56;49.31;47.16;55.41;;
64642;Laerm;59936;51.490;5.436;2023-06-22T06:04:29;60.67;49.72;72.46;;
64642;Laerm;59936;51.490;5.436;2023-06-22T06:06:58;58.17;46.40;72.68;;
64642;Laerm;59936;51.490;5.436;2023-06-22T06:09:27;53.16;45.87;73.44;;
64642;Laerm;59936;51.490;5.436;2023-06-22T06:11:55;48.16;46.18;52.69;;
64642;Laerm;59936;51.490;5.436;2023-06-22T06:14:24;48.56;45.58;56.03;;
64642;Laerm;59936;51.490;5.436;2023-06-22T06:16:53;47.36;45.04;51.32;;
64642;Laerm;59936;51.490;5.436;2023-06-22T06:19:21;47.69;45.03;52.92;;
64642;Laerm;59936;51.490;5.436;2023-06-22T06:21:50;46.94;44.70;51.87;;
64642;Laerm;59936;51.490;5.436;2023-06-22T06:24:18;46.52;43.61;56.71;;
64642;Laerm;59936;51.490;5.436;2023-06-22T06:26:47;46.44;43.69;54.21;;
64642;Laerm;59936;51.490;5.436;2023-06-22T06:29:15;61.78;44.42;76.07;;
64642;Laerm;59936;51.490;5.436;2023-06-22T06:31:44;48.21;44.84;56.03;;
64642;Laerm;59936;51.490;5.436;2023-06-22T06:34:13;46.87;44.67;51.06;;
64642;Laerm;59936;51.490;5.436;2023-06-22T06:36:41;46.25;43.87;50.75;;
64642;Laerm;59936;51.490;5.436;2023-06-22T06:39:10;46.89;43.79;55.27;;
64642;Laerm;59936;51.490;5.436;2023-06-22T06:41:38;47.08;43.75;55.95;;
64642;Laerm;59936;51.490;5.436;2023-06-22T06:44:07;47.16;43.75;67.39;;
64642;Laerm;59936;51.490;5.436;2023-06-22T06:46:36;48.12;44.03;61.09;;
64642;Laerm;59936;51.490;5.436;2023-06-22T06:49:04;46.48;43.17;54.92;;
64642;Laerm;59936;51.490;5.436;2023-06-22T06:51:33;45.66;42.83;56.50;;
64642;Laerm;59936;51.490;5.436;2023-06-22T06:54:02;45.64;42.66;54.08;;
64642;Laerm;59936;51.490;5.436;2023-06-22T06:56:30;46.24;43.16;52.79;;
64642;Laerm;59936;51.490;5.436;2023-06-22T06:58:59;47.26;41.77;60.40;;
64642;Laerm;59936;51.490;5.436;2023-06-22T07:01:27;45.30;41.02;57.47;;
64642;Laerm;59936;51.490;5.436;2023-06-22T07:03:56;45.74;41.28;60.04;;
64642;Laerm;59936;51.490;5.436;2023-06-22T07:06:24;52.27;41.93;66.07;;
64642;Laerm;59936;51.490;5.436;2023-06-22T07:08:53;61.77;41.99;74.35;;
64642;Laerm;59936;51.490;5.436;2023-06-22T07:11:22;45.91;40.90;62.88;;
64642;Laerm;59936;51.490;5.436;2023-06-22T07:13:50;45.21;40.58;62.80;;
64642;Laerm;59936;51.490;5.436;2023-06-22T07:16:19;44.09;38.33;57.46;;
64642;Laerm;59936;51.490;5.436;2023-06-22T07:18:47;59.80;38.87;74.59;;
64642;Laerm;59936;51.490;5.436;2023-06-22T07:21:16;43.01;38.32;60.55;;
64642;Laerm;59936;51.490;5.436;2023-06-22T07:23:44;44.16;39.18;57.17;;
64642;Laerm;59936;51.490;5.436;2023-06-22T07:26:13;57.81;38.32;70.56;;
64642;Laerm;59936;51.490;5.436;2023-06-22T07:28:42;42.33;37.99;55.40;;
64642;Laerm;59936;51.490;5.436;2023-06-22T07:31:10;42.63;38.65;58.70;;
64642;Laerm;59936;51.490;5.436;2023-06-22T07:33:39;46.03;39.58;60.00;;
64642;Laerm;59936;51.490;5.436;2023-06-22T07:36:08;60.69;41.76;73.91;;
64642;Laerm;59936;51.490;5.436;2023-06-22T07:38:36;62.19;41.60;74.57;;
64642;Laerm;59936;51.490;5.436;2023-06-22T07:41:05;46.53;43.03;60.53;;
64642;Laerm;59936;51.490;5.436;2023-06-22T07:43:33;44.79;42.52;62.41;;
64642;Laerm;59936;51.490;5.436;2023-06-22T07:46:09;57.51;43.73;71.53;;
64642;Laerm;59936;51.490;5.436;2023-06-22T07:48:37;45.81;42.99;51.70;;
64642;Laerm;59936;51.490;5.436;2023-06-22T07:51:06;46.51;43.87;56.96;;
64642;Laerm;59936;51.490;5.436;2023-06-22T07:53:35;45.78;42.12;54.47;;
64642;Laerm;59936;51.490;5.436;2023-06-22T07:56:03;48.08;42.32;69.54;;
64642;Laerm;59936;51.490;5.436;2023-06-22T07:58:32;46.97;42.93;66.88;;
64642;Laerm;59936;51.490;5.436;2023-06-22T08:01:01;45.80;43.22;52.21;;
64642;Laerm;59936;51.490;5.436;2023-06-22T08:03:29;46.09;43.13;58.03;;
64642;Laerm;59936;51.490;5.436;2023-06-22T08:05:58;46.19;43.06;60.63;;
64642;Laerm;59936;51.490;5.436;2023-06-22T08:08:27;46.82;43.43;65.17;;
64642;Laerm;59936;51.490;5.436;2023-06-22T08:10:55;46.97;43.88;65.49;;
64642;Laerm;59936;51.490;5.436;2023-06-22T08:13:24;47.21;43.82;57.41;;
64642;Laerm;59936;51.490;5.436;2023-06-22T08:15:52;47.44;44.31;61.56;;
64642;Laerm;59936;51.490;5.436;2023-06-22T08:18:21;47.29;43.82;65.79;;
64642;Laerm;59936;51.490;5.436;2023-06-22T08:20:50;47.36;44.19;54.87;;
64642;Laerm;59936;51.490;5.436;2023-06-22T08:23:18;47.33;44.33;53.49;;
64642;Laerm;59936;51.490;5.436;2023-06-22T08:25:47;59.99;44.66;74.54;;
64642;Laerm;59936;51.490;5.436;2023-06-22T08:28:15;47.74;44.28;62.50;;
64642;Laerm;59936;51.490;5.436;2023-06-22T08:30:44;57.41;44.13;71.87;;
64642;Laerm;59936;51.490;5.436;2023-06-22T08:33:13;58.17;44.24;70.69;;
64642;Laerm;59936;51.490;5.436;2023-06-22T08:35:41;46.24;43.03;59.48;;
64642;Laerm;59936;51.490;5.436;2023-06-22T08:38:10;53.13;42.68;68.34;;
64642;Laerm;59936;51.490;5.436;2023-06-22T08:40:39;46.67;43.20;53.19;;
64642;Laerm;59936;51.490;5.436;2023-06-22T08:43:07;47.11;43.60;54.62;;
64642;Laerm;59936;51.490;5.436;2023-06-22T08:45:36;46.73;43.59;54.51;;
64642;Laerm;59936;51.490;5.436;2023-06-22T08:48:04;59.94;44.22;74.68;;
64642;Laerm;59936;51.490;5.436;2023-06-22T08:50:33;46.99;44.20;57.36;;
64642;Laerm;59936;51.490;5.436;2023-06-22T08:53:02;46.63;44.29;54.63;;
64642;Laerm;59936;51.490;5.436;2023-06-22T08:55:30;45.97;43.24;52.08;;
64642;Laerm;59936;51.490;5.436;2023-06-22T08:57:59;46.60;43.40;62.25;;
64642;Laerm;59936;51.490;5.436;2023-06-22T09:00:27;47.60;44.56;66.77;;
64642;Laerm;59936;51.490;5.436;2023-06-22T09:02:56;46.14;43.17;53.17;;
64642;Laerm;59936;51.490;5.436;2023-06-22T09:05:25;47.03;43.48;56.72;;
64642;Laerm;59936;51.490;5.436;2023-06-22T09:07:56;60.78;45.08;73.40;;
64642;Laerm;59936;51.490;5.436;2023-06-22T09:10:25;47.47;44.28;64.27;;
64642;Laerm;59936;51.490;5.436;2023-06-22T09:12:54;46.81;44.20;55.22;;
64642;Laerm;59936;51.490;5.436;2023-06-22T09:15:22;47.70;44.65;56.82;;
64642;Laerm;59936;51.490;5.436;2023-06-22T09:17:51;46.64;44.09;59.30;;
64642;Laerm;59936;51.490;5.436;2023-06-22T09:20:20;46.29;43.50;53.75;;
64642;Laerm;59936;51.490;5.436;2023-06-22T09:22:48;46.56;43.90;56.30;;
64642;Laerm;59936;51.490;5.436;2023-06-22T09:25:17;48.23;44.60;57.94;;
64642;Laerm;59936;51.490;5.436;2023-06-22T09:27:47;48.42;43.88;57.98;;
64642;Laerm;59936;51.490;5.436;2023-06-22T09:30:15;46.53;42.40;63.62;;
64642;Laerm;59936;51.490;5.436;2023-06-22T09:32:44;47.50;44.55;58.73;;
64642;Laerm;59936;51.490;5.436;2023-06-22T09:35:12;46.53;43.53;53.21;;
64642;Laerm;59936;51.490;5.436;2023-06-22T09:37:41;47.11;42.62;70.82;;
64642;Laerm;59936;51.490;5.436;2023-06-22T09:40:10;47.01;43.84;58.64;;
64642;Laerm;59936;51.490;5.436;2023-06-22T09:42:39;46.99;44.14;52.74;;
64642;Laerm;59936;51.490;5.436;2023-06-22T09:45:08;47.06;43.98;54.78;;
64642;Laerm;59936;51.490;5.436;2023-06-22T09:47:37;47.70;44.05;54.85;;
64642;Laerm;59936;51.490;5.436;2023-06-22T09:50:10;59.93;43.97;75.19;;
64642;Laerm;59936;51.490;5.436;2023-06-22T09:52:38;51.08;43.97;65.88;;
64642;Laerm;59936;51.490;5.436;2023-06-22T09:55:08;47.82;43.93;61.88;;
64642;Laerm;59936;51.490;5.436;2023-06-22T09:57:37;48.29;43.85;57.39;;
64642;Laerm;59936;51.490;5.436;2023-06-22T10:00:06;47.65;44.52;52.76;;
64642;Laerm;59936;51.490;5.436;2023-06-22T10:02:35;47.23;44.27;54.23;;
64642;Laerm;59936;51.490;5.436;2023-06-22T10:05:04;46.76;43.04;55.35;;
64642;Laerm;59936;51.490;5.436;2023-06-22T10:07:32;50.83;44.14;64.12;;
64642;Laerm;59936;51.490;5.436;2023-06-22T10:10:01;48.13;44.80;63.29;;
64642;Laerm;59936;51.490;5.436;2023-06-22T10:12:29;46.95;44.60;52.26;;
64642;Laerm;59936;51.490;5.436;2023-06-22T10:14:58;46.73;43.92;50.20;;
64642;Laerm;59936;51.490;5.436;2023-06-22T10:17:27;48.31;45.35;59.55;;
64642;Laerm;59936;51.490;5.436;2023-06-22T10:19:55;47.01;44.62;50.66;;
64642;Laerm;59936;51.490;5.436;2023-06-22T10:22:24;61.08;45.71;74.36;;
64642;Laerm;59936;51.490;5.436;2023-06-22T10:24:55;59.28;45.63;72.85;;
64642;Laerm;59936;51.490;5.436;2023-06-22T10:27:24;61.53;45.80;74.78;;
64642;Laerm;59936;51.490;5.436;2023-06-22T10:29:52;47.97;43.92;59.23;;
64642;Laerm;59936;51.490;5.436;2023-06-22T10:32:21;48.82;44.07;59.13;;
64642;Laerm;59936;51.490;5.436;2023-06-22T10:34:50;46.02;43.15;50.57;;
64642;Laerm;59936;51.490;5.436;2023-06-22T10:37:18;46.17;42.73;64.83;;
64642;Laerm;59936;51.490;5.436;2023-06-22T10:39:47;44.50;42.05;53.82;;
64642;Laerm;59936;51.490;5.436;2023-06-22T10:42:15;45.05;42.97;49.54;;
64642;Laerm;59936;51.490;5.436;2023-06-22T10:44:44;45.29;42.81;50.96;;
64642;Laerm;59936;51.490;5.436;2023-06-22T10:47:13;47.86;43.37;63.47;;
64642;Laerm;59936;51.490;5.436;2023-06-22T10:49:41;45.64;42.76;51.78;;
64642;Laerm;59936;51.490;5.436;2023-06-22T10:52:10;59.23;44.42;72.76;;
64642;Laerm;59936;51.490;5.436;2023-06-22T10:54:38;49.00;46.95;60.64;;
64642;Laerm;59936;51.490;5.436;2023-06-22T10:57:07;51.95;47.43;59.84;;
64642;Laerm;59936;51.490;5.436;2023-06-22T10:59:36;53.30;50.02;56.47;;
64642;Laerm;59936;51.490;5.436;2023-06-22T11:02:05;50.92;48.79;59.98;;
64642;Laerm;59936;51.490;5.436;2023-06-22T11:04:33;60.22;48.15;75.22;;
64642;Laerm;59936;51.490;5.436;2023-06-22T11:07:02;49.91;47.74;56.24;;
64642;Laerm;59936;51.490;5.436;2023-06-22T11:09:31;50.66;48.62;61.45;;
64642;Laerm;59936;51.490;5.436;2023-06-22T11:11:59;50.16;48.18;53.33;;
64642;Laerm;59936;51.490;5.436;2023-06-22T11:14:28;49.98;47.60;59.71;;
64642;Laerm;59936;51.490;5.436;2023-06-22T11:16:56;60.58;48.96;73.71;;
64642;Laerm;59936;51.490;5.436;2023-06-22T11:19:25;61.62;50.43;74.36;;
64642;Laerm;59936;51.490;5.436;2023-06-22T11:21:53;51.59;49.04;55.39;;
64642;Laerm;59936;51.490;5.436;2023-06-22T11:24:22;49.59;48.48;53.03;;
64642;Laerm;59936;51.490;5.436;2023-06-22T11:26:51;49.14;47.82;53.34;;
64642;Laerm;59936;51.490;5.436;2023-06-22T11:29:20;56.39;47.68;64.01;;
64642;Laerm;59936;51.490;5.436;2023-06-22T11:31:48;63.52;53.59;73.88;;
64642;Laerm;59936;51.490;5.436;2023-06-22T11:34:17;53.24;51.25;56.79;;
64642;Laerm;59936;51.490;5.436;2023-06-22T11:36:45;56.25;51.99;60.49;;
64642;Laerm;59936;51.490;5.436;2023-06-22T11:39:14;57.94;55.43;68.69;;
64642;Laerm;59936;51.490;5.436;2023-06-22T11:41:42;61.85;53.93;73.34;;
64642;Laerm;59936;51.490;5.436;2023-06-22T11:44:17;60.16;54.15;70.30;;
64642;Laerm;59936;51.490;5.436;2023-06-22T11:46:51;61.03;57.68;67.71;;
64642;Laerm;59936;51.490;5.436;2023-06-22T11:49:20;59.86;56.36;65.38;;
64642;Laerm;59936;51.490;5.436;2023-06-22T11:51:54;62.10;54.62;75.37;;
64642;Laerm;59936;51.490;5.436;2023-06-22T11:54:27;59.00;57.10;71.18;;
64642;Laerm;59936;51.490;5.436;2023-06-22T11:56:56;56.07;54.11;59.35;;
64642;Laerm;59936;51.490;5.436;2023-06-22T11:59:24;55.55;53.83;64.41;;
64642;Laerm;59936;51.490;5.436;2023-06-22T12:01:53;56.02;54.00;63.98;;
64642;Laerm;59936;51.490;5.436;2023-06-22T12:04:22;55.64;54.14;59.68;;
64642;Laerm;59936;51.490;5.436;2023-06-22T12:06:50;55.41;53.55;60.65;;
64642;Laerm;59936;51.490;5.436;2023-06-22T12:09:19;54.58;52.93;59.42;;
64642;Laerm;59936;51.490;5.436;2023-06-22T12:11:47;55.58;54.07;61.67;;
64642;Laerm;59936;51.490;5.436;2023-06-22T12:14:16;55.30;53.70;69.91;;
64642;Laerm;59936;51.490;5.436;2023-06-22T12:16:49;61.23;51.17;74.95;;
64642;Laerm;59936;51.490;5.436;2023-06-22T12:19:18;53.32;51.23;57.15;;
64642;Laerm;59936;51.490;5.436;2023-06-22T12:21:46;53.47;51.89;61.31;;
64642;Laerm;59936;51.490;5.436;2023-06-22T12:24:15;51.60;49.79;58.20;;
64642;Laerm;59936;51.490;5.436;2023-06-22T12:26:43;51.44;48.40;61.85;;
64642;Laerm;59936;51.490;5.436;2023-06-22T12:29:12;58.08;49.39;70.17;;
64642;Laerm;59936;51.490;5.436;2023-06-22T12:31:41;55.08;50.56;60.16;;
64642;Laerm;59936;51.490;5.436;2023-06-22T12:34:09;58.75;55.08;62.40;;
64642;Laerm;59936;51.490;5.436;2023-06-22T12:36:38;58.96;55.84;61.53;;
64642;Laerm;59936;51.490;5.436;2023-06-22T12:39:06;55.27;53.33;57.64;;
64642;Laerm;59936;51.490;5.436;2023-06-22T12:41:35;54.29;51.86;59.65;;
64642;Laerm;59936;51.490;5.436;2023-06-22T12:44:04;53.69;51.06;56.01;;
64642;Laerm;59936;51.490;5.436;2023-06-22T12:46:32;53.24;50.64;56.25;;
64642;Laerm;59936;51.490;5.436;2023-06-22T12:49:01;53.41;51.00;56.47;;
64642;Laerm;59936;51.490;5.436;2023-06-22T12:51:30;59.02;50.76;74.04;;
64642;Laerm;59936;51.490;5.436;2023-06-22T12:53:58;57.44;50.46;68.23;;
64642;Laerm;59936;51.490;5.436;2023-06-22T12:56:27;52.41;50.58;54.43;;
64642;Laerm;59936;51.490;5.436;2023-06-22T12:58:55;63.05;49.91;75.75;;
64642;Laerm;59936;51.490;5.436;2023-06-22T13:01:24;52.29;50.44;55.78;;
64642;Laerm;59936;51.490;5.436;2023-06-22T13:03:53;52.89;51.07;56.40;;
64642;Laerm;59936;51.490;5.436;2023-06-22T13:06:22;52.50;50.07;55.39;;
64642;Laerm;59936;51.490;5.436;2023-06-22T13:08:54;62.87;50.48;77.36;;
64642;Laerm;59936;51.490;5.436;2023-06-22T13:11:23;60.65;50.42;76.63;;
64642;Laerm;59936;51.490;5.436;2023-06-22T13:13:51;53.03;50.68;59.18;;
64642;Laerm;59936;51.490;5.436;2023-06-22T13:16:20;53.42;51.20;56.19;;
64642;Laerm;59936;51.490;5.436;2023-06-22T13:18:48;53.39;51.29;55.70;;
64642;Laerm;59936;51.490;5.436;2023-06-22T13:21:17;53.64;51.22;68.59;;
64642;Laerm;59936;51.490;5.436;2023-06-22T13:23:46;53.65;51.38;56.70;;
64642;Laerm;59936;51.490;5.436;2023-06-22T13:26:16;63.18;51.72;75.92;;
64642;Laerm;59936;51.490;5.436;2023-06-22T13:28:45;53.98;51.76;56.89;;
64642;Laerm;59936;51.490;5.436;2023-06-22T13:31:14;53.62;51.50;56.28;;
64642;Laerm;59936;51.490;5.436;2023-06-22T13:33:42;53.36;51.14;56.42;;
64642;Laerm;59936;51.490;5.436;2023-06-22T13:36:11;62.61;51.70;77.77;;
64642;Laerm;59936;51.490;5.436;2023-06-22T13:38:39;54.19;51.72;57.54;;
64642;Laerm;59936;51.490;5.436;2023-06-22T13:41:08;54.12;52.20;56.93;;
64642;Laerm;59936;51.490;5.436;2023-06-22T13:43:37;53.89;51.47;57.92;;
64642;Laerm;59936;51.490;5.436;2023-06-22T13:46:05;54.50;52.41;57.63;;
64642;Laerm;59936;51.490;5.436;2023-06-22T13:48:34;53.96;52.08;60.52;;
64642;Laerm;59936;51.490;5.436;2023-06-22T13:51:02;60.24;52.38;74.00;;
64642;Laerm;59936;51.490;5.436;2023-06-22T13:53:31;54.10;52.05;58.48;;
64642;Laerm;59936;51.490;5.436;2023-06-22T13:55:59;53.87;51.88;56.43;;
64642;Laerm;59936;51.490;5.436;2023-06-22T13:58:28;54.24;51.76;66.54;;
64642;Laerm;59936;51.490;5.436;2023-06-22T14:00:57;54.26;51.53;61.42;;
64642;Laerm;59936;51.490;5.436;2023-06-22T14:03:25;63.16;51.68;75.24;;